sensor_id;sensor_type;location;lat;lon;timestamp;P1;durP1;ratioP1;P2;durP2;ratioP2
3066;SDS011;1544;48.834;9.194;2023-03-01T00:01:34;19.60;;;12.95;;
3066;SDS011;1544;48.834;9.194;2023-03-01T00:04:09;17.45;;;12.23;;
3066;SDS011;1544;48.834;9.194;2023-03-01T00:06:44;18.25;;;12.60;;
3066;SDS011;1544;48.834;9.194;2023-03-01T00:09:20;19.50;;;13.40;;
3066;SDS011;1544;48.834;9.194;2023-03-01T00:11:55;25.20;;;14.27;;
3066;SDS011;1544;48.834;9.194;2023-03-01T00:14:30;19.58;;;12.90;;
3066;SDS011;1544;48.834;9.194;2023-03-01T00:17:05;19.20;;;12.55;;
3066;SDS011;1544;48.834;9.194;2023-03-01T00:19:40;20.92;;;13.07;;
3066;SDS011;1544;48.834;9.194;2023-03-01T00:22:15;20.83;;;13.05;;
3066;SDS011;1544;48.834;9.194;2023-03-01T00:24:50;19.05;;;12.70;;
3066;SDS011;1544;48.834;9.194;2023-03-01T00:27:25;20.73;;;12.45;;
3066;SDS011;1544;48.834;9.194;2023-03-01T00:30:00;17.83;;;12.18;;
3066;SDS011;1544;48.834;9.194;2023-03-01T00:32:35;17.40;;;11.73;;
3066;SDS011;1544;48.834;9.194;2023-03-01T00:35:10;19.08;;;12.40;;
3066;SDS011;1544;48.834;9.194;2023-03-01T00:37:45;17.83;;;12.05;;
3066;SDS011;1544;48.834;9.194;2023-03-01T00:40:20;18.05;;;11.68;;
3066;SDS011;1544;48.834;9.194;2023-03-01T00:42:55;18.48;;;12.52;;
3066;SDS011;1544;48.834;9.194;2023-03-01T00:45:30;19.25;;;12.85;;
3066;SDS011;1544;48.834;9.194;2023-03-01T00:48:07;19.58;;;12.93;;
3066;SDS011;1544;48.834;9.194;2023-03-01T00:50:42;20.90;;;12.93;;
3066;SDS011;1544;48.834;9.194;2023-03-01T00:53:16;16.77;;;12.02;;
3066;SDS011;1544;48.834;9.194;2023-03-01T00:55:51;17.75;;;12.18;;
3066;SDS011;1544;48.834;9.194;2023-03-01T00:58:26;22.45;;;12.75;;
3066;SDS011;1544;48.834;9.194;2023-03-01T01:01:17;17.65;;;12.57;;
3066;SDS011;1544;48.834;9.194;2023-03-01T01:03:57;21.30;;;13.80;;
3066;SDS011;1544;48.834;9.194;2023-03-01T01:06:37;17.65;;;11.70;;
3066;SDS011;1544;48.834;9.194;2023-03-01T01:09:18;22.05;;;11.93;;
3066;SDS011;1544;48.834;9.194;2023-03-01T01:11:53;17.02;;;12.32;;
3066;SDS011;1544;48.834;9.194;2023-03-01T01:14:28;19.38;;;13.77;;
3066;SDS011;1544;48.834;9.194;2023-03-01T01:17:03;18.83;;;12.95;;
3066;SDS011;1544;48.834;9.194;2023-03-01T01:19:39;21.13;;;12.52;;
3066;SDS011;1544;48.834;9.194;2023-03-01T01:22:14;22.60;;;13.13;;
3066;SDS011;1544;48.834;9.194;2023-03-01T01:24:50;24.67;;;13.23;;
3066;SDS011;1544;48.834;9.194;2023-03-01T01:27:25;21.65;;;12.80;;
3066;SDS011;1544;48.834;9.194;2023-03-01T01:30:00;19.77;;;12.85;;
3066;SDS011;1544;48.834;9.194;2023-03-01T01:32:36;21.58;;;12.68;;
3066;SDS011;1544;48.834;9.194;2023-03-01T01:35:11;25.67;;;14.38;;
3066;SDS011;1544;48.834;9.194;2023-03-01T01:37:46;19.90;;;12.77;;
3066;SDS011;1544;48.834;9.194;2023-03-01T01:40:21;19.70;;;12.65;;
3066;SDS011;1544;48.834;9.194;2023-03-01T01:42:56;21.55;;;12.70;;
3066;SDS011;1544;48.834;9.194;2023-03-01T01:45:32;18.00;;;12.50;;
3066;SDS011;1544;48.834;9.194;2023-03-01T01:48:13;22.48;;;14.32;;
3066;SDS011;1544;48.834;9.194;2023-03-01T01:50:55;24.63;;;13.35;;
3066;SDS011;1544;48.834;9.194;2023-03-01T01:53:34;17.48;;;12.25;;
3066;SDS011;1544;48.834;9.194;2023-03-01T01:56:11;17.58;;;12.13;;
3066;SDS011;1544;48.834;9.194;2023-03-01T01:58:48;20.48;;;13.50;;
3066;SDS011;1544;48.834;9.194;2023-03-01T02:01:24;21.40;;;12.82;;
3066;SDS011;1544;48.834;9.194;2023-03-01T02:04:00;19.05;;;12.45;;
3066;SDS011;1544;48.834;9.194;2023-03-01T02:06:39;20.15;;;12.90;;
3066;SDS011;1544;48.834;9.194;2023-03-01T02:09:21;17.55;;;12.13;;
3066;SDS011;1544;48.834;9.194;2023-03-01T02:11:57;20.08;;;12.40;;
3066;SDS011;1544;48.834;9.194;2023-03-01T02:14:33;19.15;;;12.77;;
3066;SDS011;1544;48.834;9.194;2023-03-01T02:17:08;22.60;;;13.00;;
3066;SDS011;1544;48.834;9.194;2023-03-01T02:22:50;23.38;;;13.75;;
3066;SDS011;1544;48.834;9.194;2023-03-01T02:28:31;17.90;;;12.48;;
3066;SDS011;1544;48.834;9.194;2023-03-01T02:31:09;23.85;;;13.90;;
3066;SDS011;1544;48.834;9.194;2023-03-01T02:34:08;20.33;;;13.57;;
3066;SDS011;1544;48.834;9.194;2023-03-01T02:36:48;20.42;;;12.80;;
3066;SDS011;1544;48.834;9.194;2023-03-01T02:39:37;22.75;;;13.68;;
3066;SDS011;1544;48.834;9.194;2023-03-01T02:42:23;18.35;;;11.70;;
3066;SDS011;1544;48.834;9.194;2023-03-01T02:45:05;19.60;;;12.68;;
3066;SDS011;1544;48.834;9.194;2023-03-01T02:47:40;17.90;;;12.77;;
3066;SDS011;1544;48.834;9.194;2023-03-01T02:50:19;18.58;;;12.23;;
3066;SDS011;1544;48.834;9.194;2023-03-01T02:53:12;21.73;;;13.50;;
3066;SDS011;1544;48.834;9.194;2023-03-01T02:55:56;21.60;;;13.38;;
3066;SDS011;1544;48.834;9.194;2023-03-01T02:58:31;18.85;;;13.57;;
3066;SDS011;1544;48.834;9.194;2023-03-01T03:01:14;20.13;;;13.00;;
3066;SDS011;1544;48.834;9.194;2023-03-01T03:03:50;23.30;;;13.20;;
3066;SDS011;1544;48.834;9.194;2023-03-01T03:06:25;20.33;;;13.95;;
3066;SDS011;1544;48.834;9.194;2023-03-01T03:09:01;24.63;;;14.23;;
3066;SDS011;1544;48.834;9.194;2023-03-01T03:11:38;20.08;;;13.27;;
3066;SDS011;1544;48.834;9.194;2023-03-01T03:14:16;20.17;;;13.63;;
3066;SDS011;1544;48.834;9.194;2023-03-01T03:16:54;19.83;;;12.90;;
3066;SDS011;1544;48.834;9.194;2023-03-01T03:19:29;22.45;;;13.75;;
3066;SDS011;1544;48.834;9.194;2023-03-01T03:22:04;21.63;;;14.05;;
3066;SDS011;1544;48.834;9.194;2023-03-01T03:24:38;20.85;;;14.02;;
3066;SDS011;1544;48.834;9.194;2023-03-01T03:27:13;22.48;;;13.13;;
3066;SDS011;1544;48.834;9.194;2023-03-01T03:29:48;19.93;;;14.03;;
3066;SDS011;1544;48.834;9.194;2023-03-01T03:32:23;20.00;;;12.95;;
3066;SDS011;1544;48.834;9.194;2023-03-01T03:34:58;18.33;;;13.00;;
3066;SDS011;1544;48.834;9.194;2023-03-01T03:37:33;20.58;;;14.60;;
3066;SDS011;1544;48.834;9.194;2023-03-01T03:40:37;22.60;;;14.32;;
3066;SDS011;1544;48.834;9.194;2023-03-01T03:43:15;18.77;;;13.07;;
3066;SDS011;1544;48.834;9.194;2023-03-01T03:45:55;20.53;;;13.97;;
3066;SDS011;1544;48.834;9.194;2023-03-01T03:48:34;21.83;;;14.75;;
3066;SDS011;1544;48.834;9.194;2023-03-01T03:51:13;23.43;;;15.17;;
3066;SDS011;1544;48.834;9.194;2023-03-01T03:53:50;20.20;;;13.02;;
3066;SDS011;1544;48.834;9.194;2023-03-01T03:56:25;21.33;;;13.57;;
3066;SDS011;1544;48.834;9.194;2023-03-01T03:59:02;20.83;;;13.47;;
3066;SDS011;1544;48.834;9.194;2023-03-01T04:01:36;22.33;;;13.45;;
3066;SDS011;1544;48.834;9.194;2023-03-01T04:04:11;23.53;;;14.60;;
3066;SDS011;1544;48.834;9.194;2023-03-01T04:06:47;21.43;;;13.27;;
3066;SDS011;1544;48.834;9.194;2023-03-01T04:09:22;19.73;;;14.07;;
3066;SDS011;1544;48.834;9.194;2023-03-01T04:11:57;21.85;;;14.80;;
3066;SDS011;1544;48.834;9.194;2023-03-01T04:14:32;21.30;;;14.83;;
3066;SDS011;1544;48.834;9.194;2023-03-01T04:17:07;24.20;;;13.83;;
3066;SDS011;1544;48.834;9.194;2023-03-01T04:19:42;25.40;;;14.67;;
3066;SDS011;1544;48.834;9.194;2023-03-01T04:22:18;21.50;;;14.13;;
3066;SDS011;1544;48.834;9.194;2023-03-01T04:24:53;21.53;;;13.33;;
3066;SDS011;1544;48.834;9.194;2023-03-01T04:27:28;19.97;;;14.00;;
3066;SDS011;1544;48.834;9.194;2023-03-01T04:30:03;19.90;;;13.40;;
3066;SDS011;1544;48.834;9.194;2023-03-01T04:32:39;25.60;;;14.90;;
3066;SDS011;1544;48.834;9.194;2023-03-01T04:35:14;26.20;;;14.60;;
3066;SDS011;1544;48.834;9.194;2023-03-01T04:37:49;19.08;;;13.55;;
3066;SDS011;1544;48.834;9.194;2023-03-01T04:40:24;20.33;;;13.32;;
3066;SDS011;1544;48.834;9.194;2023-03-01T04:42:59;18.77;;;12.93;;
3066;SDS011;1544;48.834;9.194;2023-03-01T04:45:34;23.23;;;14.20;;
3066;SDS011;1544;48.834;9.194;2023-03-01T04:48:10;21.80;;;14.88;;
3066;SDS011;1544;48.834;9.194;2023-03-01T04:50:45;22.50;;;14.97;;
3066;SDS011;1544;48.834;9.194;2023-03-01T04:53:20;23.30;;;15.33;;
3066;SDS011;1544;48.834;9.194;2023-03-01T04:55:55;21.00;;;14.20;;
3066;SDS011;1544;48.834;9.194;2023-03-01T04:58:30;25.00;;;15.60;;
3066;SDS011;1544;48.834;9.194;2023-03-01T05:01:14;20.57;;;14.00;;
3066;SDS011;1544;48.834;9.194;2023-03-01T05:03:52;20.13;;;13.90;;
3066;SDS011;1544;48.834;9.194;2023-03-01T05:06:27;22.23;;;14.70;;
3066;SDS011;1544;48.834;9.194;2023-03-01T05:09:02;24.80;;;14.60;;
3066;SDS011;1544;48.834;9.194;2023-03-01T05:11:37;20.27;;;13.60;;
3066;SDS011;1544;48.834;9.194;2023-03-01T05:14:17;21.13;;;13.93;;
3066;SDS011;1544;48.834;9.194;2023-03-01T05:16:52;23.00;;;14.30;;
3066;SDS011;1544;48.834;9.194;2023-03-01T05:19:27;25.00;;;14.50;;
3066;SDS011;1544;48.834;9.194;2023-03-01T05:22:02;23.40;;;14.87;;
3066;SDS011;1544;48.834;9.194;2023-03-01T05:24:40;27.40;;;15.27;;
3066;SDS011;1544;48.834;9.194;2023-03-01T05:27:15;19.87;;;13.57;;
3066;SDS011;1544;48.834;9.194;2023-03-01T05:29:50;22.50;;;13.67;;
3066;SDS011;1544;48.834;9.194;2023-03-01T05:32:24;21.83;;;14.03;;
3066;SDS011;1544;48.834;9.194;2023-03-01T05:35:00;22.23;;;14.80;;
3066;SDS011;1544;48.834;9.194;2023-03-01T05:37:35;22.93;;;14.10;;
3066;SDS011;1544;48.834;9.194;2023-03-01T05:40:10;19.90;;;13.53;;
3066;SDS011;1544;48.834;9.194;2023-03-01T05:42:55;20.87;;;14.07;;
3066;SDS011;1544;48.834;9.194;2023-03-01T05:45:31;22.30;;;14.97;;
3066;SDS011;1544;48.834;9.194;2023-03-01T05:48:07;19.80;;;14.07;;
3066;SDS011;1544;48.834;9.194;2023-03-01T05:50:43;23.30;;;15.30;;
3066;SDS011;1544;48.834;9.194;2023-03-01T05:53:20;22.30;;;14.53;;
3066;SDS011;1544;48.834;9.194;2023-03-01T05:55:55;21.87;;;13.97;;
3066;SDS011;1544;48.834;9.194;2023-03-01T05:58:30;21.07;;;13.93;;
3066;SDS011;1544;48.834;9.194;2023-03-01T06:01:05;20.73;;;15.00;;
3066;SDS011;1544;48.834;9.194;2023-03-01T06:03:40;20.97;;;14.53;;
3066;SDS011;1544;48.834;9.194;2023-03-01T06:06:15;18.10;;;13.70;;
3066;SDS011;1544;48.834;9.194;2023-03-01T06:08:50;22.53;;;14.10;;
3066;SDS011;1544;48.834;9.194;2023-03-01T06:11:27;19.85;;;14.75;;
3066;SDS011;1544;48.834;9.194;2023-03-01T06:14:02;21.87;;;13.70;;
3066;SDS011;1544;48.834;9.194;2023-03-01T06:16:38;20.90;;;14.70;;
3066;SDS011;1544;48.834;9.194;2023-03-01T06:19:13;17.60;;;13.73;;
3066;SDS011;1544;48.834;9.194;2023-03-01T06:21:47;21.93;;;13.60;;
3066;SDS011;1544;48.834;9.194;2023-03-01T06:24:22;18.50;;;13.17;;
3066;SDS011;1544;48.834;9.194;2023-03-01T06:26:57;20.90;;;15.03;;
3066;SDS011;1544;48.834;9.194;2023-03-01T06:29:32;20.40;;;14.10;;
3066;SDS011;1544;48.834;9.194;2023-03-01T06:32:07;25.20;;;14.80;;
3066;SDS011;1544;48.834;9.194;2023-03-01T06:34:42;23.67;;;14.90;;
3066;SDS011;1544;48.834;9.194;2023-03-01T06:37:18;24.10;;;14.50;;
3066;SDS011;1544;48.834;9.194;2023-03-01T06:39:52;21.20;;;14.07;;
3066;SDS011;1544;48.834;9.194;2023-03-01T06:42:27;25.88;;;14.85;;
3066;SDS011;1544;48.834;9.194;2023-03-01T06:45:03;23.53;;;14.73;;
3066;SDS011;1544;48.834;9.194;2023-03-01T06:47:40;21.27;;;15.07;;
3066;SDS011;1544;48.834;9.194;2023-03-01T06:50:15;21.53;;;14.50;;
3066;SDS011;1544;48.834;9.194;2023-03-01T06:52:54;21.80;;;15.00;;
3066;SDS011;1544;48.834;9.194;2023-03-01T06:55:31;23.23;;;13.93;;
3066;SDS011;1544;48.834;9.194;2023-03-01T06:58:06;21.77;;;14.60;;
3066;SDS011;1544;48.834;9.194;2023-03-01T07:00:43;24.40;;;15.00;;
3066;SDS011;1544;48.834;9.194;2023-03-01T07:03:18;25.53;;;15.00;;
3066;SDS011;1544;48.834;9.194;2023-03-01T07:05:53;21.40;;;15.77;;
3066;SDS011;1544;48.834;9.194;2023-03-01T07:08:28;25.80;;;15.93;;
3066;SDS011;1544;48.834;9.194;2023-03-01T07:11:03;21.87;;;14.00;;
3066;SDS011;1544;48.834;9.194;2023-03-01T07:13:39;22.33;;;16.38;;
3066;SDS011;1544;48.834;9.194;2023-03-01T07:16:14;23.37;;;15.30;;
3066;SDS011;1544;48.834;9.194;2023-03-01T07:18:49;22.77;;;16.00;;
3066;SDS011;1544;48.834;9.194;2023-03-01T07:21:24;27.00;;;15.97;;
3066;SDS011;1544;48.834;9.194;2023-03-01T07:23:59;22.90;;;15.30;;
3066;SDS011;1544;48.834;9.194;2023-03-01T07:26:34;22.20;;;14.97;;
3066;SDS011;1544;48.834;9.194;2023-03-01T07:29:10;22.13;;;14.20;;
3066;SDS011;1544;48.834;9.194;2023-03-01T07:31:45;24.73;;;16.63;;
3066;SDS011;1544;48.834;9.194;2023-03-01T07:34:20;29.10;;;15.40;;
3066;SDS011;1544;48.834;9.194;2023-03-01T07:36:55;22.05;;;15.60;;
3066;SDS011;1544;48.834;9.194;2023-03-01T07:39:30;26.20;;;15.20;;
3066;SDS011;1544;48.834;9.194;2023-03-01T07:42:05;20.35;;;14.43;;
3066;SDS011;1544;48.834;9.194;2023-03-01T07:44:40;27.92;;;16.35;;
3066;SDS011;1544;48.834;9.194;2023-03-01T07:47:15;21.40;;;15.67;;
3066;SDS011;1544;48.834;9.194;2023-03-01T07:49:50;22.57;;;15.03;;
3066;SDS011;1544;48.834;9.194;2023-03-01T07:52:25;26.90;;;16.43;;
3066;SDS011;1544;48.834;9.194;2023-03-01T07:54:59;25.63;;;16.13;;
3066;SDS011;1544;48.834;9.194;2023-03-01T07:57:34;22.97;;;14.70;;
3066;SDS011;1544;48.834;9.194;2023-03-01T08:00:10;28.70;;;16.57;;
3066;SDS011;1544;48.834;9.194;2023-03-01T08:02:46;25.58;;;15.63;;
3066;SDS011;1544;48.834;9.194;2023-03-01T08:05:21;27.43;;;16.53;;
3066;SDS011;1544;48.834;9.194;2023-03-01T08:07:56;23.33;;;15.47;;
3066;SDS011;1544;48.834;9.194;2023-03-01T08:10:31;24.90;;;15.00;;
3066;SDS011;1544;48.834;9.194;2023-03-01T08:13:06;28.57;;;17.27;;
3066;SDS011;1544;48.834;9.194;2023-03-01T08:15:40;23.83;;;15.55;;
3066;SDS011;1544;48.834;9.194;2023-03-01T08:18:16;25.47;;;16.20;;
3066;SDS011;1544;48.834;9.194;2023-03-01T08:20:53;27.03;;;16.67;;
3066;SDS011;1544;48.834;9.194;2023-03-01T08:23:27;25.23;;;16.70;;
3066;SDS011;1544;48.834;9.194;2023-03-01T08:26:08;23.27;;;15.23;;
3066;SDS011;1544;48.834;9.194;2023-03-01T08:28:54;20.70;;;14.57;;
3066;SDS011;1544;48.834;9.194;2023-03-01T08:31:31;22.38;;;15.15;;
3066;SDS011;1544;48.834;9.194;2023-03-01T08:34:12;26.50;;;15.65;;
3066;SDS011;1544;48.834;9.194;2023-03-01T08:36:49;25.23;;;15.43;;
3066;SDS011;1544;48.834;9.194;2023-03-01T08:39:25;29.90;;;16.57;;
3066;SDS011;1544;48.834;9.194;2023-03-01T08:42:01;27.77;;;15.87;;
3066;SDS011;1544;48.834;9.194;2023-03-01T08:44:36;22.13;;;15.00;;
3066;SDS011;1544;48.834;9.194;2023-03-01T08:47:11;22.23;;;14.93;;
3066;SDS011;1544;48.834;9.194;2023-03-01T08:49:45;25.93;;;16.17;;
3066;SDS011;1544;48.834;9.194;2023-03-01T08:52:20;26.07;;;16.50;;
3066;SDS011;1544;48.834;9.194;2023-03-01T08:54:59;26.50;;;16.33;;
3066;SDS011;1544;48.834;9.194;2023-03-01T08:57:35;22.50;;;14.80;;
3066;SDS011;1544;48.834;9.194;2023-03-01T09:00:10;23.47;;;15.17;;
3066;SDS011;1544;48.834;9.194;2023-03-01T09:02:45;22.90;;;15.30;;
3066;SDS011;1544;48.834;9.194;2023-03-01T09:05:20;23.40;;;15.40;;
3066;SDS011;1544;48.834;9.194;2023-03-01T09:07:56;23.93;;;14.90;;
3066;SDS011;1544;48.834;9.194;2023-03-01T09:10:32;23.90;;;14.53;;
3066;SDS011;1544;48.834;9.194;2023-03-01T09:13:06;25.60;;;15.00;;
3066;SDS011;1544;48.834;9.194;2023-03-01T09:15:41;24.63;;;16.97;;
3066;SDS011;1544;48.834;9.194;2023-03-01T09:18:16;23.63;;;15.57;;
3066;SDS011;1544;48.834;9.194;2023-03-01T09:20:51;23.17;;;14.60;;
3066;SDS011;1544;48.834;9.194;2023-03-01T09:23:28;28.23;;;16.90;;
3066;SDS011;1544;48.834;9.194;2023-03-01T09:26:03;24.40;;;14.80;;
3066;SDS011;1544;48.834;9.194;2023-03-01T09:28:48;23.33;;;15.93;;
3066;SDS011;1544;48.834;9.194;2023-03-01T09:31:25;25.10;;;15.90;;
3066;SDS011;1544;48.834;9.194;2023-03-01T09:34:00;23.73;;;15.50;;
3066;SDS011;1544;48.834;9.194;2023-03-01T09:36:35;25.97;;;14.87;;
3066;SDS011;1544;48.834;9.194;2023-03-01T09:39:10;20.63;;;13.93;;
3066;SDS011;1544;48.834;9.194;2023-03-01T09:44:40;26.10;;;14.03;;
3066;SDS011;1544;48.834;9.194;2023-03-01T09:47:32;22.77;;;14.50;;
3066;SDS011;1544;48.834;9.194;2023-03-01T09:50:11;20.73;;;13.83;;
3066;SDS011;1544;48.834;9.194;2023-03-01T09:53:13;27.13;;;15.63;;
3066;SDS011;1544;48.834;9.194;2023-03-01T09:59:23;24.90;;;15.33;;
3066;SDS011;1544;48.834;9.194;2023-03-01T10:02:32;23.10;;;15.03;;
3066;SDS011;1544;48.834;9.194;2023-03-01T10:08:31;17.97;;;12.90;;
3066;SDS011;1544;48.834;9.194;2023-03-01T10:11:30;23.30;;;14.37;;
3066;SDS011;1544;48.834;9.194;2023-03-01T10:23:04;25.87;;;15.80;;
3066;SDS011;1544;48.834;9.194;2023-03-01T10:29:07;22.60;;;13.97;;
3066;SDS011;1544;48.834;9.194;2023-03-01T10:34:31;20.63;;;14.73;;
3066;SDS011;1544;48.834;9.194;2023-03-01T10:40:03;21.50;;;14.80;;
3066;SDS011;1544;48.834;9.194;2023-03-01T10:42:48;21.07;;;15.57;;
3066;SDS011;1544;48.834;9.194;2023-03-01T10:48:16;20.57;;;13.90;;
3066;SDS011;1544;48.834;9.194;2023-03-01T10:53:36;21.80;;;14.40;;
3066;SDS011;1544;48.834;9.194;2023-03-01T10:56:16;19.10;;;13.27;;
3066;SDS011;1544;48.834;9.194;2023-03-01T10:58:59;19.87;;;13.67;;
3066;SDS011;1544;48.834;9.194;2023-03-01T11:01:35;20.17;;;14.17;;
3066;SDS011;1544;48.834;9.194;2023-03-01T11:04:13;19.30;;;13.93;;
3066;SDS011;1544;48.834;9.194;2023-03-01T11:06:57;21.07;;;13.80;;
3066;SDS011;1544;48.834;9.194;2023-03-01T11:09:33;24.27;;;15.60;;
3066;SDS011;1544;48.834;9.194;2023-03-01T11:12:14;17.53;;;13.47;;
3066;SDS011;1544;48.834;9.194;2023-03-01T11:14:51;19.37;;;12.80;;
3066;SDS011;1544;48.834;9.194;2023-03-01T11:17:30;19.20;;;13.10;;
3066;SDS011;1544;48.834;9.194;2023-03-01T11:20:20;18.93;;;13.97;;
3066;SDS011;1544;48.834;9.194;2023-03-01T11:23:08;18.33;;;13.73;;
3066;SDS011;1544;48.834;9.194;2023-03-01T11:25:57;17.83;;;13.20;;
3066;SDS011;1544;48.834;9.194;2023-03-01T11:28:39;20.80;;;14.00;;
3066;SDS011;1544;48.834;9.194;2023-03-01T11:31:17;19.80;;;13.93;;
3066;SDS011;1544;48.834;9.194;2023-03-01T11:34:07;16.70;;;13.10;;
3066;SDS011;1544;48.834;9.194;2023-03-01T11:36:58;15.83;;;12.60;;
3066;SDS011;1544;48.834;9.194;2023-03-01T11:39:39;14.40;;;12.83;;
3066;SDS011;1544;48.834;9.194;2023-03-01T11:42:30;19.23;;;13.70;;
3066;SDS011;1544;48.834;9.194;2023-03-01T11:45:47;19.57;;;14.10;;
3066;SDS011;1544;48.834;9.194;2023-03-01T11:52:29;17.00;;;12.33;;
3066;SDS011;1544;48.834;9.194;2023-03-01T11:55:26;14.33;;;12.83;;
3066;SDS011;1544;48.834;9.194;2023-03-01T11:58:26;16.80;;;12.60;;
3066;SDS011;1544;48.834;9.194;2023-03-01T12:07:39;15.03;;;11.73;;
3066;SDS011;1544;48.834;9.194;2023-03-01T12:10:42;15.20;;;11.60;;
3066;SDS011;1544;48.834;9.194;2023-03-01T12:13:44;14.67;;;11.67;;
3066;SDS011;1544;48.834;9.194;2023-03-01T12:20:14;15.33;;;12.27;;
3066;SDS011;1544;48.834;9.194;2023-03-01T12:23:29;14.97;;;11.93;;
3066;SDS011;1544;48.834;9.194;2023-03-01T12:29:02;15.63;;;13.40;;
3066;SDS011;1544;48.834;9.194;2023-03-01T12:44:46;16.10;;;13.40;;
3066;SDS011;1544;48.834;9.194;2023-03-01T12:50:31;13.50;;;11.60;;
3066;SDS011;1544;48.834;9.194;2023-03-01T12:56:00;13.00;;;11.60;;
3066;SDS011;1544;48.834;9.194;2023-03-01T12:58:51;15.63;;;12.70;;
3066;SDS011;1544;48.834;9.194;2023-03-01T13:01:53;14.10;;;12.67;;
3066;SDS011;1544;48.834;9.194;2023-03-01T13:05:14;15.33;;;13.47;;
3066;SDS011;1544;48.834;9.194;2023-03-01T13:08:20;14.47;;;12.90;;
3066;SDS011;1544;48.834;9.194;2023-03-01T13:11:03;19.00;;;13.70;;
3066;SDS011;1544;48.834;9.194;2023-03-01T13:13:49;15.57;;;13.27;;
3066;SDS011;1544;48.834;9.194;2023-03-01T13:19:08;15.53;;;13.90;;
3066;SDS011;1544;48.834;9.194;2023-03-01T13:21:50;16.87;;;13.30;;
3066;SDS011;1544;48.834;9.194;2023-03-01T13:24:40;13.43;;;11.47;;
3066;SDS011;1544;48.834;9.194;2023-03-01T13:29:55;16.07;;;12.23;;
3066;SDS011;1544;48.834;9.194;2023-03-01T13:32:39;17.47;;;14.30;;
3066;SDS011;1544;48.834;9.194;2023-03-01T13:37:53;15.60;;;14.00;;
3066;SDS011;1544;48.834;9.194;2023-03-01T13:50:00;16.00;;;13.70;;
3066;SDS011;1544;48.834;9.194;2023-03-01T13:55:22;16.87;;;13.40;;
3066;SDS011;1544;48.834;9.194;2023-03-01T13:58:13;16.40;;;13.87;;
3066;SDS011;1544;48.834;9.194;2023-03-01T14:00:55;18.40;;;14.53;;
3066;SDS011;1544;48.834;9.194;2023-03-01T14:03:41;17.53;;;15.73;;
3066;SDS011;1544;48.834;9.194;2023-03-01T14:06:18;16.80;;;14.80;;
3066;SDS011;1544;48.834;9.194;2023-03-01T14:18:12;18.50;;;16.43;;
3066;SDS011;1544;48.834;9.194;2023-03-01T14:21:18;16.77;;;15.00;;
3066;SDS011;1544;48.834;9.194;2023-03-01T14:23:53;16.40;;;14.27;;
3066;SDS011;1544;48.834;9.194;2023-03-01T14:26:28;19.47;;;16.27;;
3066;SDS011;1544;48.834;9.194;2023-03-01T14:29:05;18.53;;;15.83;;
3066;SDS011;1544;48.834;9.194;2023-03-01T14:31:44;19.53;;;16.27;;
3066;SDS011;1544;48.834;9.194;2023-03-01T14:34:27;15.63;;;13.93;;
3066;SDS011;1544;48.834;9.194;2023-03-01T14:40:19;16.83;;;15.13;;
3066;SDS011;1544;48.834;9.194;2023-03-01T14:43:04;16.90;;;15.20;;
3066;SDS011;1544;48.834;9.194;2023-03-01T14:45:48;17.07;;;15.23;;
3066;SDS011;1544;48.834;9.194;2023-03-01T14:48:24;17.03;;;14.50;;
3066;SDS011;1544;48.834;9.194;2023-03-01T14:51:04;19.30;;;15.60;;
3066;SDS011;1544;48.834;9.194;2023-03-01T14:53:39;19.47;;;17.40;;
3066;SDS011;1544;48.834;9.194;2023-03-01T14:56:24;18.13;;;15.70;;
3066;SDS011;1544;48.834;9.194;2023-03-01T14:58:59;20.83;;;14.97;;
3066;SDS011;1544;48.834;9.194;2023-03-01T15:01:36;18.07;;;15.70;;
3066;SDS011;1544;48.834;9.194;2023-03-01T15:04:12;19.30;;;16.30;;
3066;SDS011;1544;48.834;9.194;2023-03-01T15:06:50;18.53;;;15.67;;
3066;SDS011;1544;48.834;9.194;2023-03-01T15:09:26;15.53;;;14.00;;
3066;SDS011;1544;48.834;9.194;2023-03-01T15:12:23;17.77;;;14.80;;
3066;SDS011;1544;48.834;9.194;2023-03-01T15:18:18;20.33;;;15.93;;
3066;SDS011;1544;48.834;9.194;2023-03-01T15:21:06;18.10;;;14.83;;
3066;SDS011;1544;48.834;9.194;2023-03-01T15:23:48;17.57;;;14.40;;
3066;SDS011;1544;48.834;9.194;2023-03-01T15:26:37;18.33;;;15.27;;
3066;SDS011;1544;48.834;9.194;2023-03-01T15:29:17;15.93;;;14.23;;
3066;SDS011;1544;48.834;9.194;2023-03-01T15:31:56;18.00;;;15.30;;
3066;SDS011;1544;48.834;9.194;2023-03-01T15:35:00;17.23;;;15.13;;
3066;SDS011;1544;48.834;9.194;2023-03-01T15:38:25;16.07;;;13.83;;
3066;SDS011;1544;48.834;9.194;2023-03-01T15:41:32;18.33;;;14.97;;
3066;SDS011;1544;48.834;9.194;2023-03-01T15:44:27;19.17;;;15.77;;
3066;SDS011;1544;48.834;9.194;2023-03-01T15:47:34;17.93;;;13.87;;
3066;SDS011;1544;48.834;9.194;2023-03-01T15:53:01;19.30;;;14.40;;
3066;SDS011;1544;48.834;9.194;2023-03-01T15:55:42;16.83;;;13.73;;
3066;SDS011;1544;48.834;9.194;2023-03-01T15:58:18;18.83;;;14.20;;
3066;SDS011;1544;48.834;9.194;2023-03-01T16:00:56;17.37;;;15.40;;
3066;SDS011;1544;48.834;9.194;2023-03-01T16:03:35;16.90;;;14.00;;
3066;SDS011;1544;48.834;9.194;2023-03-01T16:06:10;17.87;;;14.07;;
3066;SDS011;1544;48.834;9.194;2023-03-01T16:08:46;16.50;;;14.13;;
3066;SDS011;1544;48.834;9.194;2023-03-01T16:11:21;18.90;;;15.10;;
3066;SDS011;1544;48.834;9.194;2023-03-01T16:13:56;18.63;;;14.50;;
3066;SDS011;1544;48.834;9.194;2023-03-01T16:16:31;19.20;;;14.70;;
3066;SDS011;1544;48.834;9.194;2023-03-01T16:19:07;19.13;;;14.03;;
3066;SDS011;1544;48.834;9.194;2023-03-01T16:21:42;18.47;;;14.00;;
3066;SDS011;1544;48.834;9.194;2023-03-01T16:24:21;19.60;;;15.03;;
3066;SDS011;1544;48.834;9.194;2023-03-01T16:26:56;19.10;;;14.03;;
3066;SDS011;1544;48.834;9.194;2023-03-01T16:29:31;20.57;;;14.17;;
3066;SDS011;1544;48.834;9.194;2023-03-01T16:32:07;15.90;;;12.80;;
3066;SDS011;1544;48.834;9.194;2023-03-01T16:34:42;14.30;;;12.80;;
3066;SDS011;1544;48.834;9.194;2023-03-01T16:37:17;17.67;;;13.87;;
3066;SDS011;1544;48.834;9.194;2023-03-01T16:39:54;18.23;;;13.40;;
3066;SDS011;1544;48.834;9.194;2023-03-01T16:42:35;18.83;;;14.07;;
3066;SDS011;1544;48.834;9.194;2023-03-01T16:45:14;19.43;;;14.00;;
3066;SDS011;1544;48.834;9.194;2023-03-01T16:48:02;17.50;;;13.30;;
3066;SDS011;1544;48.834;9.194;2023-03-01T16:50:37;17.20;;;12.63;;
3066;SDS011;1544;48.834;9.194;2023-03-01T16:53:13;18.00;;;13.50;;
3066;SDS011;1544;48.834;9.194;2023-03-01T16:55:55;17.23;;;12.53;;
3066;SDS011;1544;48.834;9.194;2023-03-01T16:58:31;18.30;;;13.50;;
3066;SDS011;1544;48.834;9.194;2023-03-01T17:01:11;20.03;;;13.13;;
3066;SDS011;1544;48.834;9.194;2023-03-01T17:03:49;15.77;;;11.47;;
3066;SDS011;1544;48.834;9.194;2023-03-01T17:06:25;19.93;;;14.00;;
3066;SDS011;1544;48.834;9.194;2023-03-01T17:09:01;15.57;;;11.83;;
3066;SDS011;1544;48.834;9.194;2023-03-01T17:11:37;18.43;;;11.43;;
3066;SDS011;1544;48.834;9.194;2023-03-01T17:14:13;16.50;;;12.10;;
3066;SDS011;1544;48.834;9.194;2023-03-01T17:16:50;17.87;;;12.27;;
3066;SDS011;1544;48.834;9.194;2023-03-01T17:19:27;17.70;;;12.47;;
3066;SDS011;1544;48.834;9.194;2023-03-01T17:22:02;16.33;;;11.43;;
3066;SDS011;1544;48.834;9.194;2023-03-01T17:24:37;18.43;;;13.20;;
3066;SDS011;1544;48.834;9.194;2023-03-01T17:27:13;17.13;;;12.30;;
3066;SDS011;1544;48.834;9.194;2023-03-01T17:29:49;16.73;;;12.90;;
3066;SDS011;1544;48.834;9.194;2023-03-01T17:32:24;19.57;;;12.50;;
3066;SDS011;1544;48.834;9.194;2023-03-01T17:34:59;18.17;;;12.63;;
3066;SDS011;1544;48.834;9.194;2023-03-01T17:37:34;15.00;;;11.70;;
3066;SDS011;1544;48.834;9.194;2023-03-01T17:40:10;18.30;;;12.90;;
3066;SDS011;1544;48.834;9.194;2023-03-01T17:42:46;16.77;;;12.17;;
3066;SDS011;1544;48.834;9.194;2023-03-01T17:45:21;18.10;;;13.40;;
3066;SDS011;1544;48.834;9.194;2023-03-01T17:47:56;15.37;;;12.13;;
3066;SDS011;1544;48.834;9.194;2023-03-01T17:50:32;18.97;;;13.90;;
3066;SDS011;1544;48.834;9.194;2023-03-01T17:53:08;17.70;;;13.27;;